createdAt,value
2023-04-07T00:01:30.619Z,8.52
2023-04-07T00:03:57.383Z,8.20
2023-04-07T00:06:24.085Z,7.00
2023-04-07T00:08:50.706Z,6.93
2023-04-07T00:13:43.413Z,5.38
2023-04-07T00:16:09.854Z,5.72
2023-04-07T00:18:36.335Z,5.97
2023-04-07T00:21:02.775Z,6.00
2023-04-07T00:23:29.292Z,6.32
2023-04-07T00:25:56.094Z,6.18
2023-04-07T00:30:48.926Z,6.55
2023-04-07T00:33:15.432Z,6.80
2023-04-07T00:35:41.940Z,6.72
2023-04-07T00:38:08.448Z,7.90
2023-04-07T00:40:34.908Z,7.53
2023-04-07T00:43:01.474Z,7.50
2023-04-07T00:45:28.053Z,8.50
2023-04-07T00:47:54.606Z,9.23
2023-04-07T00:50:21.072Z,8.25
2023-04-07T00:52:47.513Z,9.15
2023-04-07T00:55:13.999Z,9.32
2023-04-07T00:57:40.559Z,9.82
2023-04-07T01:00:08.660Z,9.85
2023-04-07T01:02:43.121Z,9.50
2023-04-07T01:05:36.317Z,9.63
2023-04-07T01:08:12.999Z,8.50
2023-04-07T01:10:43.845Z,8.45
2023-04-07T01:13:22.261Z,8.05
2023-04-07T01:15:51.517Z,9.25
2023-04-07T01:18:22.700Z,8.27
2023-04-07T01:20:51.310Z,8.40
2023-04-07T01:23:23.332Z,8.77
2023-04-07T01:25:59.680Z,8.13
2023-04-07T01:28:38.300Z,8.85
2023-04-07T01:31:05.612Z,8.65
2023-04-07T01:33:32.648Z,8.40
2023-04-07T01:36:01.101Z,9.07
2023-04-07T01:38:29.371Z,8.88
2023-04-07T01:40:56.547Z,8.40
2023-04-07T01:43:24.193Z,8.95
2023-04-07T01:45:51.144Z,8.35
2023-04-07T01:48:18.076Z,8.93
2023-04-07T01:50:45.042Z,9.27
2023-04-07T01:53:11.871Z,10.18
2023-04-07T01:55:38.493Z,11.15
2023-04-07T01:58:07.935Z,11.75
2023-04-07T02:00:37.363Z,12.10
2023-04-07T02:03:16.795Z,12.02
2023-04-07T02:05:43.446Z,12.48
2023-04-07T02:08:11.662Z,12.05
2023-04-07T02:10:39.100Z,12.40
2023-04-07T02:13:07.094Z,12.27
2023-04-07T02:15:34.074Z,12.02
2023-04-07T02:18:01.812Z,12.05
2023-04-07T02:20:29.473Z,11.25
2023-04-07T02:22:56.198Z,10.70
2023-04-07T02:27:49.178Z,10.75
2023-04-07T02:30:15.887Z,11.07
2023-04-07T02:32:44.297Z,10.57
2023-04-07T02:37:37.955Z,11.07
2023-04-07T02:40:05.156Z,11.13
2023-04-07T02:42:31.728Z,10.75
2023-04-07T02:44:58.196Z,10.68
2023-04-07T02:47:25.353Z,11.15
2023-04-07T02:49:51.746Z,10.00
2023-04-07T02:52:18.177Z,10.18
2023-04-07T02:54:44.621Z,10.65
2023-04-07T02:57:11.911Z,9.52
2023-04-07T02:59:38.301Z,10.50
2023-04-07T03:02:05.326Z,9.70
2023-04-07T03:04:32.914Z,10.18
2023-04-07T03:07:00.532Z,10.75
2023-04-07T03:09:28.839Z,9.77
2023-04-07T03:11:56.663Z,9.98
2023-04-07T03:14:24.132Z,9.98
2023-04-07T03:19:17.659Z,9.82
2023-04-07T03:21:49.220Z,8.85
2023-04-07T03:24:15.853Z,9.23
2023-04-07T03:26:42.387Z,8.27
2023-04-07T03:29:18.100Z,8.63
2023-04-07T03:31:44.611Z,8.43
2023-04-07T03:34:13.567Z,7.95
2023-04-07T03:36:39.986Z,8.25
2023-04-07T03:39:06.684Z,8.85
2023-04-07T03:41:33.160Z,8.55
2023-04-07T03:43:59.644Z,8.07
2023-04-07T03:46:27.137Z,7.75
2023-04-07T03:48:54.096Z,8.88
2023-04-07T03:51:22.051Z,8.23
2023-04-07T03:53:53.200Z,8.27
2023-04-07T03:56:31.458Z,8.45
2023-04-07T03:58:58.780Z,8.05
2023-04-07T04:01:29.641Z,9.10
2023-04-07T04:04:00.917Z,7.93
2023-04-07T04:06:29.944Z,8.73
2023-04-07T04:09:04.624Z,8.70
2023-04-07T04:11:34.984Z,8.73
2023-04-07T04:14:03.931Z,7.82
2023-04-07T04:16:31.769Z,8.27
2023-04-07T04:19:03.205Z,8.23
2023-04-07T04:21:31.242Z,8.75
2023-04-07T04:23:57.717Z,8.13
2023-04-07T04:26:29.786Z,7.65
2023-04-07T04:29:02.762Z,8.65
2023-04-07T04:31:29.738Z,8.60
2023-04-07T04:33:56.881Z,9.63
2023-04-07T04:36:24.737Z,9.25
2023-04-07T04:38:56.477Z,9.25
2023-04-07T04:41:23.679Z,9.52
2023-04-07T04:43:51.169Z,9.65
2023-04-07T04:46:21.879Z,9.50
2023-04-07T04:48:49.526Z,8.70
2023-04-07T04:51:18.419Z,9.25
2023-04-07T04:53:48.559Z,9.30
2023-04-07T04:56:16.298Z,9.23
2023-04-07T04:58:48.285Z,9.45
2023-04-07T05:01:35.364Z,9.55
2023-04-07T05:04:06.880Z,8.40
2023-04-07T05:06:34.262Z,9.15
2023-04-07T05:09:06.327Z,8.63
2023-04-07T05:11:41.222Z,8.30
2023-04-07T05:14:07.839Z,8.57
2023-04-07T05:16:35.823Z,8.02
2023-04-07T05:19:03.878Z,7.07
2023-04-07T05:21:31.575Z,7.13
2023-04-07T05:24:02.353Z,7.60
2023-04-07T05:26:30.398Z,7.40
2023-04-07T05:28:57.582Z,7.93
2023-04-07T05:31:25.399Z,7.57
2023-04-07T05:33:55.430Z,7.75
2023-04-07T05:36:25.040Z,8.07
2023-04-07T05:38:55.208Z,7.97
2023-04-07T05:46:16.462Z,7.53
2023-04-07T05:48:51.755Z,7.35
2023-04-07T05:51:19.664Z,7.30
2023-04-07T05:56:12.728Z,7.50
2023-04-07T05:58:43.752Z,7.68
2023-04-07T06:01:11.643Z,7.72
2023-04-07T06:03:38.291Z,7.25
2023-04-07T06:06:11.499Z,8.13
2023-04-07T06:13:31.074Z,7.65
2023-04-07T06:15:57.555Z,7.70
2023-04-07T06:18:23.949Z,7.75
2023-04-07T06:20:50.374Z,8.32
2023-04-07T06:23:18.179Z,9.57
2023-04-07T06:25:45.378Z,9.27
2023-04-07T06:28:11.861Z,9.90
2023-04-07T06:30:38.332Z,8.10
2023-04-07T06:33:08.692Z,8.50
2023-04-07T06:35:35.326Z,7.78
2023-04-07T06:38:02.291Z,8.48
2023-04-07T06:40:28.674Z,9.25
2023-04-07T06:42:55.210Z,10.80
2023-04-07T06:45:36.606Z,11.02
2023-04-07T06:48:03.158Z,9.82
2023-04-07T06:50:29.776Z,8.88
2023-04-07T06:52:56.196Z,8.80
2023-04-07T06:55:22.692Z,8.40
2023-04-07T06:57:52.233Z,8.32
2023-04-07T07:00:19.036Z,8.77
2023-04-07T07:02:45.648Z,8.00
2023-04-07T07:07:38.499Z,8.10
2023-04-07T07:10:05.539Z,8.55
2023-04-07T07:12:32.372Z,7.90
2023-04-07T07:14:58.819Z,8.25
2023-04-07T07:17:25.300Z,7.40
2023-04-07T07:19:51.764Z,7.55
2023-04-07T07:22:18.149Z,7.15
2023-04-07T07:24:44.679Z,7.40
2023-04-07T07:27:11.132Z,6.82
2023-04-07T07:29:37.512Z,7.47
2023-04-07T07:32:03.902Z,6.97
2023-04-07T07:34:30.424Z,6.97
2023-04-07T07:36:56.903Z,7.25
2023-04-07T07:39:23.347Z,7.25
2023-04-07T07:41:51.730Z,6.65
2023-04-07T07:44:20.330Z,6.88
2023-04-07T07:46:46.871Z,6.30
2023-04-07T07:52:22.353Z,5.82
2023-04-07T07:54:49.013Z,5.88
2023-04-07T07:57:15.697Z,5.97
2023-04-07T08:02:08.756Z,5.88
2023-04-07T08:04:35.931Z,5.22
2023-04-07T08:07:02.872Z,5.97
2023-04-07T08:09:29.516Z,5.32
2023-04-07T08:14:22.581Z,5.30
2023-04-07T08:16:49.121Z,5.22
2023-04-07T08:19:15.558Z,5.32
2023-04-07T08:21:42.049Z,5.60
2023-04-07T08:24:12.320Z,4.80
2023-04-07T08:26:38.752Z,4.25
2023-04-07T08:29:05.140Z,4.18
2023-04-07T08:31:31.579Z,3.90
2023-04-07T08:33:58.858Z,3.75
2023-04-07T08:36:26.223Z,3.67
2023-04-07T08:38:52.675Z,3.28
2023-04-07T08:41:27.378Z,3.15
2023-04-07T08:43:53.873Z,3.08
2023-04-07T08:46:22.001Z,2.72
2023-04-07T08:48:50.878Z,3.20
2023-04-07T08:51:18.985Z,3.08
2023-04-07T08:53:51.850Z,2.67
2023-04-07T08:56:18.606Z,2.63
2023-04-07T08:58:46.560Z,2.92
2023-04-07T09:01:13.611Z,2.50
2023-04-07T09:03:40.576Z,3.22
2023-04-07T09:06:07.073Z,3.53
2023-04-07T09:08:33.446Z,3.00
2023-04-07T09:10:59.851Z,4.40
2023-04-07T09:13:26.297Z,3.00
2023-04-07T09:15:52.746Z,3.42
2023-04-07T09:18:19.362Z,3.85
2023-04-07T09:23:26.906Z,3.05
2023-04-07T09:25:53.454Z,3.25
2023-04-07T09:38:06.413Z,2.65
2023-04-07T09:40:33.149Z,3.05
2023-04-07T09:42:59.980Z,3.25
2023-04-07T09:45:34.001Z,3.60
2023-04-07T09:48:05.422Z,3.03
2023-04-07T09:50:35.511Z,3.38
2023-04-07T09:53:03.288Z,2.63
2023-04-07T09:55:30.364Z,2.28
2023-04-07T09:57:56.940Z,3.55
2023-04-07T10:05:17.937Z,2.92
2023-04-07T10:10:11.358Z,2.83
2023-04-07T10:19:58.491Z,2.80
2023-04-07T10:22:28.780Z,2.85
2023-04-07T10:25:00.124Z,2.63
2023-04-07T10:27:30.897Z,2.90
2023-04-07T10:29:58.384Z,2.00
2023-04-07T10:32:25.390Z,2.35
2023-04-07T10:34:53.511Z,2.22
2023-04-07T10:37:22.175Z,2.63
2023-04-07T10:39:49.211Z,2.10
2023-04-07T10:42:34.585Z,2.63
2023-04-07T10:45:01.942Z,2.40
2023-04-07T10:47:28.415Z,2.30
2023-04-07T10:50:13.587Z,2.38
2023-04-07T10:52:40.064Z,2.38
2023-04-07T10:55:25.296Z,2.70
2023-04-07T10:58:10.772Z,4.43
2023-04-07T11:00:37.204Z,2.65
2023-04-07T11:03:11.024Z,3.20
2023-04-07T11:05:38.893Z,3.30
2023-04-07T11:08:06.723Z,2.60
2023-04-07T11:10:33.883Z,3.10
2023-04-07T11:13:01.522Z,3.15
2023-04-07T11:15:28.256Z,3.10
2023-04-07T11:18:06.787Z,3.03
2023-04-07T11:20:45.883Z,3.13
2023-04-07T11:23:13.501Z,3.60
2023-04-07T11:25:41.873Z,3.10
2023-04-07T11:28:09.720Z,3.38
2023-04-07T11:30:36.397Z,3.60
2023-04-07T11:35:29.459Z,3.60
2023-04-07T11:40:34.301Z,3.50
2023-04-07T11:43:02.239Z,4.13
2023-04-07T11:45:28.798Z,3.70
2023-04-07T11:50:41.356Z,3.67
2023-04-07T11:53:07.950Z,3.70
2023-04-07T11:55:34.588Z,3.83
2023-04-07T12:00:27.634Z,3.88
2023-04-07T12:02:54.392Z,3.40
2023-04-07T12:05:21.901Z,3.63
2023-04-07T12:07:55.550Z,3.60
2023-04-07T12:10:23.031Z,4.20
2023-04-07T12:12:49.964Z,3.80
2023-04-07T12:15:16.775Z,3.25
2023-04-07T12:17:47.783Z,2.65
2023-04-07T12:20:15.028Z,2.75
2023-04-07T12:22:41.820Z,3.45
2023-04-07T12:25:08.425Z,2.70
2023-04-07T12:30:09.800Z,2.90
2023-04-07T12:32:37.678Z,3.10
2023-04-07T12:35:04.367Z,2.80
2023-04-07T12:39:58.751Z,2.28
2023-04-07T12:42:25.485Z,2.70
2023-04-07T12:44:53.067Z,2.58
2023-04-07T12:47:19.455Z,2.10
2023-04-07T12:49:46.374Z,2.38
2023-04-07T12:52:13.787Z,2.33
2023-04-07T12:54:40.171Z,2.45
2023-04-07T12:57:06.630Z,2.35
2023-04-07T12:59:33.099Z,2.20
2023-04-07T13:01:59.636Z,2.17
2023-04-07T13:04:27.008Z,2.10
2023-04-07T13:06:53.837Z,2.17
2023-04-07T13:09:20.238Z,2.40
2023-04-07T13:11:47.895Z,2.58
2023-04-07T13:14:14.345Z,3.10
2023-04-07T13:16:40.805Z,2.65
2023-04-07T13:19:09.275Z,2.97
2023-04-07T13:21:46.200Z,3.13
2023-04-07T13:24:13.716Z,3.17
2023-04-07T13:31:32.966Z,3.28
2023-04-07T13:33:59.381Z,3.63
2023-04-07T13:36:27.339Z,4.00
2023-04-07T13:38:53.810Z,3.70
2023-04-07T13:41:21.514Z,3.72
2023-04-07T13:43:48.197Z,3.58
2023-04-07T13:46:27.410Z,4.82
2023-04-07T13:48:55.604Z,3.85
2023-04-07T13:51:22.095Z,4.10
2023-04-07T13:53:48.849Z,4.40
2023-04-07T13:56:15.535Z,4.10
2023-04-07T14:03:35.457Z,3.42
2023-04-07T14:06:02.337Z,3.40
2023-04-07T14:08:28.794Z,3.97
2023-04-07T14:10:55.344Z,3.63
2023-04-07T14:13:21.788Z,3.67
2023-04-07T14:15:48.807Z,3.78
2023-04-07T14:18:15.575Z,4.45
2023-04-07T14:20:41.957Z,4.60
2023-04-07T14:23:08.448Z,3.90
2023-04-07T14:25:34.996Z,3.78
2023-04-07T14:30:27.976Z,3.40
2023-04-07T14:32:54.446Z,3.70
2023-04-07T14:35:21.615Z,3.40
2023-04-07T14:37:48.042Z,3.40
2023-04-07T14:40:14.441Z,3.30
2023-04-07T14:42:41.565Z,3.88
2023-04-07T14:45:08.267Z,3.72
2023-04-07T14:47:34.775Z,3.65
2023-04-07T14:50:01.480Z,4.97
2023-04-07T14:52:28.069Z,5.68
2023-04-07T15:02:13.507Z,4.53
2023-04-07T15:04:40.015Z,4.50
2023-04-07T15:07:06.611Z,4.75
2023-04-07T15:14:26.885Z,4.70
2023-04-07T15:16:53.273Z,4.70
2023-04-07T15:19:19.661Z,4.60
2023-04-07T15:21:46.247Z,4.47
2023-04-07T15:36:25.914Z,5.60
2023-04-07T15:38:52.262Z,6.03
2023-04-07T15:41:18.602Z,4.70
2023-04-07T15:43:45.052Z,5.10
2023-04-07T15:46:11.499Z,5.05
2023-04-07T15:48:37.875Z,5.25
2023-04-07T15:51:04.440Z,6.18
2023-04-07T15:53:31.033Z,6.28
2023-04-07T16:03:17.371Z,6.57
2023-04-07T16:05:43.932Z,6.30
2023-04-07T16:08:13.602Z,6.30
2023-04-07T16:10:40.384Z,6.72
2023-04-07T16:13:06.853Z,6.20
2023-04-07T16:15:40.149Z,6.40
2023-04-07T16:18:09.146Z,6.65
2023-04-07T16:20:35.731Z,6.68
2023-04-07T16:27:55.111Z,6.97
2023-04-07T16:30:21.963Z,7.70
2023-04-07T16:32:48.487Z,7.50
2023-04-07T16:35:15.088Z,8.40
2023-04-07T16:37:41.998Z,8.85
2023-04-07T16:40:08.965Z,10.32
2023-04-07T16:42:36.596Z,11.18
2023-04-07T16:45:03.659Z,10.32
2023-04-07T16:47:33.761Z,9.00
2023-04-07T16:50:01.590Z,9.13
2023-04-07T16:52:28.157Z,9.48
2023-04-07T16:54:54.526Z,9.27
2023-04-07T16:57:21.049Z,9.35
2023-04-07T16:59:48.446Z,9.20
2023-04-07T17:02:16.714Z,9.20
2023-04-07T17:04:44.150Z,9.05
2023-04-07T17:07:11.623Z,8.98
2023-04-07T17:09:38.094Z,10.77
2023-04-07T17:12:05.845Z,10.55
2023-04-07T17:14:32.340Z,9.77
2023-04-07T17:16:58.874Z,8.73
2023-04-07T17:19:25.671Z,9.85
2023-04-07T17:21:52.273Z,11.13
2023-04-07T17:24:18.799Z,12.50
2023-04-07T17:26:48.302Z,14.07
2023-04-07T17:29:15.682Z,14.73
2023-04-07T17:31:42.158Z,13.40
2023-04-07T17:34:08.796Z,15.18
2023-04-07T17:39:03.004Z,13.73
2023-04-07T17:41:31.099Z,13.50
2023-04-07T17:43:57.561Z,12.68
2023-04-07T17:46:24.189Z,12.25
2023-04-07T17:51:18.163Z,12.45
2023-04-07T17:58:37.467Z,13.40
2023-04-07T18:01:04.277Z,13.43
2023-04-07T18:03:31.172Z,14.52
2023-04-07T18:05:57.940Z,13.82
2023-04-07T18:10:51.630Z,12.40
2023-04-07T18:15:45.313Z,13.93
2023-04-07T18:23:05.006Z,14.13
2023-04-07T18:25:31.477Z,14.90
2023-04-07T18:27:58.848Z,14.73
2023-04-07T18:30:25.738Z,15.15
2023-04-07T18:32:52.281Z,15.75
2023-04-07T18:52:27.000Z,16.83
2023-04-07T18:57:19.835Z,18.17
2023-04-07T18:59:46.301Z,29.80
2023-04-07T19:02:12.899Z,24.00
2023-04-07T19:04:39.650Z,23.88
2023-04-07T19:09:33.293Z,24.30
2023-04-07T19:11:59.919Z,23.20
2023-04-07T19:19:19.461Z,20.45
2023-04-07T19:21:46.257Z,21.85
2023-04-07T19:31:32.355Z,20.02
2023-04-07T19:36:26.527Z,16.40
2023-04-07T19:38:53.103Z,18.45
2023-04-07T19:41:19.782Z,18.80
2023-04-07T19:46:13.460Z,19.00
2023-04-07T19:51:07.520Z,17.73
2023-04-07T19:53:34.195Z,18.20
2023-04-07T19:56:01.561Z,19.95
2023-04-07T19:58:28.005Z,19.13
2023-04-07T20:00:55.068Z,19.10
2023-04-07T20:03:22.038Z,19.33
2023-04-07T20:05:49.737Z,19.65
2023-04-07T20:08:16.474Z,19.98
2023-04-07T20:10:42.948Z,20.38
2023-04-07T20:13:09.759Z,18.80
2023-04-07T20:15:36.616Z,20.10
2023-04-07T20:18:03.730Z,19.35
2023-04-07T20:20:30.329Z,19.80
2023-04-07T20:22:56.760Z,19.10
2023-04-07T20:25:23.352Z,20.40
2023-04-07T20:27:50.336Z,20.00
2023-04-07T20:30:17.009Z,19.13
2023-04-07T20:35:11.902Z,19.27
2023-04-07T20:37:38.460Z,19.48
2023-04-07T20:40:06.076Z,19.67
2023-04-07T20:42:32.556Z,21.80
2023-04-07T20:45:03.699Z,22.42
2023-04-07T20:47:31.381Z,20.40
2023-04-07T20:49:58.738Z,20.45
2023-04-07T20:52:27.071Z,19.73
2023-04-07T20:54:53.596Z,20.05
2023-04-07T20:57:20.102Z,20.08
2023-04-07T20:59:46.576Z,19.88
2023-04-07T21:02:13.132Z,19.60
2023-04-07T21:07:06.589Z,17.83
2023-04-07T21:09:32.980Z,20.13
2023-04-07T21:12:01.927Z,20.35
2023-04-07T21:14:28.442Z,20.30
2023-04-07T21:16:54.824Z,21.52
2023-04-07T21:19:22.177Z,20.70
2023-04-07T21:21:48.638Z,20.00
2023-04-07T21:24:15.104Z,21.08
2023-04-07T21:26:41.471Z,20.73
2023-04-07T21:29:07.969Z,20.98
2023-04-07T21:31:34.384Z,20.70
2023-04-07T21:34:00.898Z,21.75
2023-04-07T21:36:27.761Z,21.02
2023-04-07T21:38:54.315Z,20.33
2023-04-07T21:41:22.518Z,21.23
2023-04-07T21:43:49.021Z,20.25
2023-04-07T21:46:16.552Z,21.75
2023-04-07T21:48:43.057Z,21.95
2023-04-07T21:51:09.571Z,22.58
2023-04-07T21:53:36.140Z,21.45
2023-04-07T21:56:02.970Z,21.80
2023-04-07T21:58:29.660Z,21.23
2023-04-07T22:05:49.091Z,21.75
2023-04-07T22:08:15.654Z,22.52
2023-04-07T22:10:42.226Z,23.25
2023-04-07T22:13:09.279Z,23.15
2023-04-07T22:15:35.734Z,23.75
2023-04-07T22:18:02.437Z,22.80
2023-04-07T22:20:28.975Z,24.42
2023-04-07T22:22:57.629Z,24.83
2023-04-07T22:25:24.807Z,25.60
2023-04-07T22:27:54.440Z,26.35
2023-04-07T22:30:20.961Z,25.98
2023-04-07T22:32:48.188Z,26.40
2023-04-07T22:35:14.893Z,25.05
2023-04-07T22:37:41.319Z,25.27
2023-04-07T22:40:08.256Z,24.38
2023-04-07T22:42:34.750Z,24.40
2023-04-07T22:45:01.307Z,24.55
2023-04-07T22:47:27.791Z,23.38
2023-04-07T22:49:54.361Z,23.50
2023-04-07T22:52:20.812Z,22.98
2023-04-07T22:54:47.249Z,22.05
2023-04-07T22:57:13.753Z,23.17
2023-04-07T22:59:43.350Z,22.27
2023-04-07T23:02:09.936Z,22.48
2023-04-07T23:04:36.484Z,22.55
2023-04-07T23:07:02.916Z,22.48
2023-04-07T23:09:29.395Z,22.35
2023-04-07T23:11:57.005Z,22.35
2023-04-07T23:14:23.518Z,21.92
2023-04-07T23:16:51.069Z,21.00
2023-04-07T23:19:17.716Z,19.30
2023-04-07T23:21:44.235Z,18.83
2023-04-07T23:24:10.816Z,19.77
2023-04-07T23:26:37.204Z,20.10
2023-04-07T23:29:03.621Z,21.15
2023-04-07T23:31:30.075Z,21.27
2023-04-07T23:33:58.286Z,19.48
2023-04-07T23:36:24.707Z,20.13
2023-04-07T23:38:51.579Z,21.65
2023-04-07T23:41:18.093Z,19.88
2023-04-07T23:43:44.507Z,19.90
2023-04-07T23:46:11.063Z,20.60
2023-04-07T23:48:37.655Z,19.20
2023-04-07T23:51:04.269Z,20.83
2023-04-07T23:53:30.909Z,24.00
2023-04-07T23:55:57.558Z,22.58
2023-04-07T23:58:23.927Z,21.60
